Time;durP1;ratioP1;P1;durP2;ratioP2;P2;SDS_P1;SDS_P2;PMS_P1;PMS_P2;Temp;Humidity;BMP_temperature;BMP_pressure;BME280_temperature;BME280_humidity;BME280_pressure;Samples;Min_cycle;Max_cycle;Signal;HPM_P1;HPM_P2
2023/09/25 00:01:33;;;;;;;3.88;2.30;;;14.80;99.90;;;;;;5116821;27;20091;-69
2023/09/25 00:03:59;;;;;;;4.57;2.35;;;15.00;99.90;;;;;;5116395;27;20510;-69
2023/09/25 00:06:25;;;;;;;6.78;2.30;;;;;;;;;;5099555;27;20043;-69
2023/09/25 00:08:51;;;;;;;5.28;2.30;;;;;;;;;;5099275;27;20046;-69
2023/09/25 00:11:17;;;;;;;4.93;2.25;;;;;;;;;;5116041;27;20098;-69
2023/09/25 00:13:43;;;;;;;7.82;2.72;;;;;;;;;;5099161;27;20116;-70
2023/09/25 00:16:13;;;;;;;3.50;2.40;;;14.90;99.90;;;;;;5099023;27;20057;-69
2023/09/25 00:18:39;;;;;;;6.35;2.83;;;15.90;99.90;;;;;;5098951;27;20115;-77
2023/09/25 00:21:05;;;;;;;4.07;2.25;;;;;;;;;;5099127;27;20050;-76
2023/09/25 00:23:31;;;;;;;5.60;2.50;;;;;;;;;;5116284;27;20084;-76
2023/09/25 00:26:02;;;;;;;4.95;2.50;;;15.00;99.90;;;;;;5116049;27;20046;-76
2023/09/25 00:28:28;;;;;;;6.57;3.00;;;;;;;;;;5115934;27;20043;-76
2023/09/25 00:30:54;;;;;;;6.15;2.75;;;;;;;;;;5098829;27;20402;-77
2023/09/25 00:33:20;;;;;;;6.55;2.38;;;;;;;;;;5115527;27;20100;-76
2023/09/25 00:35:47;;;;;;;4.10;2.50;;;;;;;;;;5115595;27;20035;-76
2023/09/25 00:38:13;;;;;;;4.55;2.20;;;15.10;99.90;;;;;;5115912;27;20157;-76
2023/09/25 00:40:39;;;;;;;5.97;2.75;;;;;;;;;;5098789;27;20043;-77
2023/09/25 00:43:06;;;;;;;5.80;2.55;;;;;;;;;;5099008;27;20039;-77
2023/09/25 00:45:36;;;;;;;5.68;2.63;;;14.80;99.90;;;;;;5119658;27;20107;-76
2023/09/25 00:48:03;;;;;;;4.90;2.72;;;;;;;;;;5116288;27;20487;-76
2023/09/25 00:50:32;;;;;;;5.10;2.90;;;;;;;;;;5115550;27;20066;-77
2023/09/25 00:53:06;;;;;;;5.22;2.75;;;;;;;;;;5117993;27;20035;-69
2023/09/25 00:55:34;;;;;;;5.07;2.90;;;;;;;;;;5119521;27;20050;-69
2023/09/25 00:58:01;;;;;;;4.75;2.85;;;14.70;99.90;;;;;;5118336;27;20057;-69
2023/09/25 01:00:27;;;;;;;6.90;2.80;;;;;;;;;;5123651;27;20035;-70
2023/09/25 01:02:53;;;;;;;5.43;3.15;;;;;;;;;;5133767;27;20111;-70
2023/09/25 01:05:19;;;;;;;5.30;2.70;;;;;;;;;;5130669;27;20055;-70
2023/09/25 01:07:45;;;;;;;5.38;2.70;;;;;;;;;;5127198;28;20023;-69
2023/09/25 01:10:15;;;;;;;5.47;2.60;;;;;;;;;;5125243;27;20055;-70
2023/09/25 01:12:42;;;;;;;3.92;2.63;;;;;;;;;;5127568;27;20116;-69
2023/09/25 01:15:08;;;;;;;6.78;2.70;;;;;;;;;;5117669;27;20043;-69
2023/09/25 01:17:35;;;;;;;3.60;2.63;;;;;;;;;;5098435;27;20491;-69
2023/09/25 01:20:06;;;;;;;6.50;2.85;;;14.60;99.90;;;;;;5114795;27;20043;-70
2023/09/25 01:22:32;;;;;;;7.95;3.10;;;;;;;;;;5114842;27;20050;-69
2023/09/25 01:24:58;;;;;;;5.95;3.08;;;;;;;;;;5114843;27;20039;-69
2023/09/25 01:27:24;;;;;;;5.53;3.00;;;;;;;;;;5097719;27;20074;-70
2023/09/25 01:29:50;;;;;;;8.35;2.60;;;;;;;;;;5097586;28;20045;-70
2023/09/25 01:32:17;;;;;;;4.03;2.95;;;;;;;;;;5114486;27;20131;-69
2023/09/25 01:34:43;;;;;;;4.40;2.65;;;;;;;;;;5114736;27;20398;-69
2023/09/25 01:37:10;;;;;;;4.18;2.90;;;;;;;;;;5097516;27;20031;-69
2023/09/25 01:39:36;;;;;;;5.57;2.88;;;14.20;99.90;;;;;;5114667;28;20119;-69
2023/09/25 01:42:03;;;;;;;7.18;3.45;;;;;;;;;;5114443;28;20070;-69
2023/09/25 01:44:29;;;;;;;9.18;2.97;;;;;;;;;;5114642;28;20043;-69
2023/09/25 01:46:56;;;;;;;5.22;3.00;;;;;;;;;;5114512;28;20431;-70
2023/09/25 01:49:23;;;;;;;5.78;3.05;;;;;;;;;;5114631;28;20603;-69
2023/09/25 01:51:50;;;;;;;5.65;3.08;;;;;;;;;;5097643;28;20039;-69
2023/09/25 01:54:16;;;;;;;6.35;3.15;;;;;;;;;;5114286;28;20126;-69
2023/09/25 01:56:42;;;;;;;4.82;2.90;;;;;;;;;;5114323;28;20054;-70
2023/09/25 01:59:08;;;;;;;4.05;2.90;;;;;;;;;;5114258;28;20039;-70
2023/09/25 02:01:34;;;;;;;5.55;3.08;;;;;;;;;;5114404;28;20344;-70
2023/09/25 02:04:00;;;;;;;5.47;3.15;;;;;;;;;;5097570;28;20042;-70
2023/09/25 02:06:26;;;;;;;5.57;3.60;;;13.80;99.90;;;;;;5097434;27;20039;-70
2023/09/25 02:08:52;;;;;;;9.48;3.13;;;;;;;;;;5137053;27;20035;-69
2023/09/25 02:11:18;;;;;;;5.28;3.20;;;;;;;;;;5118063;27;20106;-70
2023/09/25 02:13:44;;;;;;;6.03;3.33;;;;;;;;;;5101354;27;20384;-70
2023/09/25 02:16:10;;;;;;;8.38;3.90;;;;;;;;;;5101507;27;20066;-69
2023/09/25 02:18:37;;;;;;;5.05;2.85;;;;;;;;;;5118350;27;20046;-69
2023/09/25 02:21:03;;;;;;;6.75;3.20;;;;;;;;;;5118242;27;20039;-69
2023/09/25 02:23:29;;;;;;;6.80;3.10;;;;;;;;;;5118286;27;20395;-69
2023/09/25 02:25:55;;;;;;;8.57;3.33;;;;;;;;;;5118264;27;20107;-70
2023/09/25 02:28:21;;;;;;;9.23;3.38;;;;;;;;;;5118289;27;20043;-70
2023/09/25 02:30:47;;;;;;;5.63;3.28;;;;;;;;;;5118129;27;20125;-70
2023/09/25 02:33:14;;;;;;;5.18;3.60;;;;;;;;;;5118171;27;20443;-70
2023/09/25 02:35:40;;;;;;;6.47;3.40;;;;;;;;;;5118536;27;20064;-70
2023/09/25 02:38:06;;;;;;;5.60;3.60;;;;;;;;;;5118283;27;20035;-70
2023/09/25 02:40:32;;;;;;;5.57;3.35;;;;;;;;;;5118304;27;20078;-77
2023/09/25 02:42:58;;;;;;;5.68;3.40;;;;;;;;;;5118237;27;20039;-76
2023/09/25 02:45:24;;;;;;;8.48;3.30;;;;;;;;;;5118134;27;20119;-77
2023/09/25 02:47:50;;;;;;;7.90;3.35;;;;;;;;;;5117728;27;20043;-77
2023/09/25 02:50:16;;;;;;;7.28;3.92;;;;;;;;;;5118181;27;20047;-77
2023/09/25 02:52:43;;;;;;;5.68;3.08;;;;;;;;;;5117560;27;20134;-77
2023/09/25 02:55:10;;;;;;;6.20;3.33;;;;;;;;;;5117631;27;20051;-70
2023/09/25 02:57:36;;;;;;;6.88;3.30;;;;;;;;;;5117573;27;20035;-70
2023/09/25 03:00:13;;;;;;;7.85;3.58;;;;;;;;;;5100642;27;20046;-70
2023/09/25 03:02:39;;;;;;;5.78;3.15;;;12.50;99.90;;;;;;5117566;27;20121;-70
2023/09/25 03:05:05;;;;;;;4.72;3.25;;;13.70;99.90;;;;;;5083667;27;20168;-70
2023/09/25 03:07:31;;;;;;;6.68;3.47;;;13.20;99.90;;;;;;5117795;27;20047;-70
2023/09/25 03:09:57;;;;;;;6.43;3.30;;;;;;;;;;5117903;27;20039;-71
2023/09/25 03:12:23;;;;;;;5.38;3.20;;;;;;;;;;5117212;27;20406;-70
2023/09/25 03:14:49;;;;;;;7.25;3.00;;;;;;;;;;5117334;27;20050;-70
2023/09/25 03:17:15;;;;;;;4.90;3.08;;;;;;;;;;5116753;27;20039;-70
2023/09/25 03:19:41;;;;;;;6.88;3.33;;;;;;;;;;5116894;27;20486;-69
2023/09/25 03:22:07;;;;;;;5.68;3.60;;;;;;;;;;5117419;27;20118;-70
2023/09/25 03:24:34;;;;;;;7.63;3.70;;;;;;;;;;5117299;27;20451;-70
2023/09/25 03:27:00;;;;;;;6.22;3.40;;;;;;;;;;5117135;27;20075;-70
2023/09/25 03:29:26;;;;;;;5.05;3.10;;;;;;;;;;5116877;27;20039;-70
2023/09/25 03:31:52;;;;;;;8.40;3.10;;;;;;;;;;5100157;27;20458;-70
2023/09/25 03:34:20;;;;;;;5.75;3.00;;;;;;;;;;5116870;27;20079;-70
2023/09/25 03:36:46;;;;;;;7.60;3.50;;;;;;;;;;5116857;27;20050;-70
2023/09/25 03:39:11;;;;;;;7.38;3.40;;;13.00;99.90;;;;;;5117173;27;20047;-70
2023/09/25 03:41:38;;;;;;;5.47;3.13;;;;;;;;;;5099901;27;20039;-70
2023/09/25 03:44:04;;;;;;;5.45;3.40;;;;;;;;;;5116813;27;20042;-77
2023/09/25 03:46:30;;;;;;;5.63;3.80;;;;;;;;;;5099971;27;20543;-77
2023/09/25 03:48:56;;;;;;;5.50;3.50;;;;;;;;;;5099914;27;20387;-77
2023/09/25 03:51:22;;;;;;;4.35;2.90;;;;;;;;;;5116578;27;20074;-77
2023/09/25 03:53:48;;;;;;;6.65;3.35;;;;;;;;;;5116579;27;20050;-76
2023/09/25 03:56:14;;;;;;;7.97;3.58;;;;;;;;;;5116582;27;20035;-76
2023/09/25 03:58:40;;;;;;;6.18;3.25;;;;;;;;;;5116863;27;20371;-76
2023/09/25 04:01:06;;;;;;;5.03;3.47;;;;;;;;;;5099712;27;20039;-77
2023/09/25 04:03:32;;;;;;;7.55;3.25;;;;;;;;;;5134895;27;20043;-77
2023/09/25 04:05:58;;;;;;;5.93;2.95;;;;;;;;;;5134986;27;20056;-77
2023/09/25 04:08:24;;;;;;;7.18;3.50;;;;;;;;;;5116493;27;20032;-77
2023/09/25 04:10:51;;;;;;;7.88;3.70;;;;;;;;;;5116266;27;20103;-77
2023/09/25 04:13:18;;;;;;;5.32;3.30;;;;;;;;;;5116597;27;20050;-70
2023/09/25 04:15:44;;;;;;;5.15;3.13;;;;;;;;;;5116643;27;20043;-70
2023/09/25 04:18:10;;;;;;;4.13;2.90;;;;;;;;;;5099597;27;20156;-70
2023/09/25 04:20:38;;;;;;;7.05;3.88;;;;;;;;;;5116681;27;20076;-69
2023/09/25 04:23:04;;;;;;;6.97;3.22;;;14.30;99.90;;;;;;5116652;27;20132;-69
2023/09/25 04:25:30;;;;;;;5.18;3.10;;;;;;;;;;5116455;27;20047;-70
2023/09/25 04:27:56;;;;;;;6.70;3.67;;;;;;;;;;5131592;27;20126;-70
2023/09/25 04:30:23;;;;;;;6.72;3.70;;;;;;;;;;5135227;27;20039;-70
2023/09/25 04:32:54;;;;;;;9.90;3.50;;;13.30;99.90;;;;;;5136543;27;20406;-70
2023/09/25 04:35:20;;;;;;;5.18;3.53;;;;;;;;;;5137168;27;20042;-76
2023/09/25 04:37:46;;;;;;;6.80;3.33;;;;;;;;;;5131780;27;20103;-76
2023/09/25 04:42:46;;;;;;;5.43;3.30;;;;;;;;;;5115714;27;20506;-77
2023/09/25 04:45:13;;;;;;;10.07;3.53;;;;;;;;;;5115574;27;20047;-77
2023/09/25 04:47:43;;;;;;;5.57;3.40;;;;;;;;;;5115527;27;20039;-70
2023/09/25 04:50:10;;;;;;;5.85;3.20;;;;;;;;;;5115336;27;20095;-70
2023/09/25 04:52:37;;;;;;;7.15;3.40;;;;;;;;;;5098550;27;20039;-70
2023/09/25 04:55:12;;;;;;;7.03;3.63;;;;;;;;;;5081560;27;20046;-70
2023/09/25 04:57:39;;;;;;;11.18;3.70;;;;;;;;;;5098953;27;20043;-70
2023/09/25 05:02:51;;;;;;;7.57;3.67;;;;;;;;;;5115266;27;20043;-70
2023/09/25 05:05:17;;;;;;;10.57;3.97;;;;;;;;;;5115696;27;20078;-70
2023/09/25 05:07:44;;;;;;;7.97;3.67;;;;;;;;;;5115475;27;20043;-70
2023/09/25 05:10:11;;;;;;;6.00;3.50;;;;;;;;;;5115350;27;20142;-70
2023/09/25 05:12:38;;;;;;;7.20;3.35;;;13.30;99.90;;;;;;5098321;27;20080;-69
2023/09/25 05:15:07;;;;;;;6.82;3.78;;;;;;;;;;5115242;27;20042;-71
2023/09/25 05:17:37;;;;;;;6.47;3.88;;;13.30;99.90;;;;;;5115703;27;20049;-70
2023/09/25 05:20:15;;;;;;;4.13;3.20;;;;;;;;;;5115329;27;20475;-70
2023/09/25 05:22:42;;;;;;;8.70;3.47;;;;;;;;;;5115234;27;20050;-71
2023/09/25 05:25:09;;;;;;;6.03;3.28;;;;;;;;;;5114972;27;20039;-70
2023/09/25 05:27:36;;;;;;;6.40;3.58;;;;;;;;;;5115160;27;20039;-70
2023/09/25 05:30:09;;;;;;;6.40;4.22;;;;;;;;;;5114981;28;20061;-70
2023/09/25 05:32:35;;;;;;;6.95;3.42;;;;;;;;;;5114799;27;20046;-78
2023/09/25 05:35:01;;;;;;;9.48;3.90;;;;;;;;;;5115207;27;20118;-77
2023/09/25 05:37:27;;;;;;;6.90;3.92;;;;;;;;;;5115404;28;20076;-70
2023/09/25 05:39:54;;;;;;;5.40;3.47;;;;;;;;;;5114768;28;20088;-70
2023/09/25 05:42:21;;;;;;;9.75;3.70;;;;;;;;;;5114893;27;20043;-70
2023/09/25 05:44:47;;;;;;;6.28;3.70;;;;;;;;;;5097974;28;20080;-70
2023/09/25 05:47:13;;;;;;;6.15;3.28;;;;;;;;;;5114820;28;20050;-70
2023/09/25 05:49:40;;;;;;;6.30;3.90;;;;;;;;;;5098140;28;20070;-70
2023/09/25 05:52:06;;;;;;;7.32;3.60;;;14.40;99.90;;;;;;5114748;28;20051;-70
2023/09/25 05:54:33;;;;;;;6.15;3.55;;;;;;;;;;5114959;28;20127;-77
2023/09/25 05:56:59;;;;;;;5.68;3.22;;;;;;;;;;5098232;28;20080;-77
2023/09/25 05:59:25;;;;;;;8.60;3.40;;;;;;;;;;5114695;28;20045;-77
2023/09/25 06:01:51;;;;;;;12.32;4.55;;;;;;;;;;5115073;28;20043;-77
2023/09/25 06:04:18;;;;;;;7.18;3.28;;;;;;;;;;5133241;28;20047;-77
2023/09/25 06:06:44;;;;;;;4.55;3.30;;;;;;;;;;5114456;28;20062;-77
2023/09/25 06:09:15;;;;;;;5.82;3.58;;;;;;;;;;5114573;28;20058;-77
2023/09/25 06:11:41;;;;;;;5.78;3.83;;;;;;;;;;5115134;28;20089;-77
2023/09/25 06:14:09;;;;;;;6.90;3.00;;;12.60;99.90;;;;;;5133132;28;20044;-76
2023/09/25 06:16:36;;;;;;;5.60;3.50;;;;;;;;;;5114622;28;20118;-75
2023/09/25 06:19:05;;;;;;;6.97;3.17;;;13.40;99.90;;;;;;5132915;28;20042;-76
2023/09/25 06:21:32;;;;;;;6.60;3.13;;;;;;;;;;5114471;28;20179;-75
2023/09/25 06:23:59;;;;;;;6.25;3.05;;;;;;;;;;5097680;28;20039;-76
2023/09/25 06:26:27;;;;;;;7.20;3.35;;;;;;;;;;5133230;28;20035;-76
2023/09/25 06:28:53;;;;;;;9.20;3.13;;;;;;;;;;5098033;28;20043;-76
2023/09/25 06:31:19;;;;;;;6.80;3.20;;;;;;;;;;5114450;28;20493;-76
2023/09/25 06:33:45;;;;;;;8.27;3.78;;;;;;;;;;5114424;28;20043;-76
2023/09/25 06:36:12;;;;;;;5.00;3.20;;;;;;;;;;5097628;28;20124;-69
2023/09/25 06:38:39;;;;;;;8.27;3.53;;;;;;;;;;5114423;28;20095;-77
2023/09/25 06:41:05;;;;;;;6.00;3.00;;;;;;;;;;5097292;28;20073;-76
2023/09/25 06:43:31;;;;;;;6.88;3.13;;;;;;;;;;5132983;28;20371;-76
2023/09/25 06:45:57;;;;;;;3.63;2.88;;;;;;;;;;5097844;28;20047;-76
2023/09/25 06:48:22;;;;;;;4.68;2.78;;;13.00;99.90;;;;;;5114498;28;20047;-76
2023/09/25 06:50:48;;;;;;;5.88;2.78;;;;;;;;;;5114104;28;20115;-76
2023/09/25 06:53:14;;;;;;;7.28;2.88;;;;;;;;;;5098946;27;20409;-76
2023/09/25 06:55:43;;;;;;;6.53;3.25;;;;;;;;;;5118495;27;20034;-70
2023/09/25 06:58:09;;;;;;;5.40;2.72;;;;;;;;;;5100904;27;20039;-69
2023/09/25 07:00:35;;;;;;;6.63;3.60;;;;;;;;;;5117933;27;20122;-76
2023/09/25 07:03:01;;;;;;;9.85;3.15;;;;;;;;;;5118437;27;20047;-69
2023/09/25 07:05:28;;;;;;;5.20;3.00;;;;;;;;;;5136317;27;20066;-69
2023/09/25 07:07:56;;;;;;;8.13;3.40;;;;;;;;;;5117968;27;20045;-76
2023/09/25 07:10:22;;;;;;;6.10;3.25;;;;;;;;;;5101029;27;20042;-69
2023/09/25 07:12:49;;;;;;;6.78;3.33;;;;;;;;;;5117450;27;20487;-70
2023/09/25 07:15:15;;;;;;;5.70;3.60;;;;;;;;;;5117669;27;20403;-77
2023/09/25 07:17:41;;;;;;;6.32;3.15;;;;;;;;;;5117614;27;20097;-70
2023/09/25 07:20:07;;;;;;;8.13;3.17;;;;;;;;;;5101069;27;20043;-70
2023/09/25 07:22:34;;;;;;;3.55;2.88;;;;;;;;;;5100598;27;20100;-70
2023/09/25 07:25:00;;;;;;;7.28;3.53;;;;;;;;;;5100598;27;20316;-70
2023/09/25 07:27:28;;;;;;;4.93;3.03;;;;;;;;;;5117614;27;20148;-77
2023/09/25 07:29:54;;;;;;;6.50;3.25;;;;;;;;;;5100502;27;20047;-77
2023/09/25 07:32:20;;;;;;;6.88;3.42;;;;;;;;;;5100277;27;20127;-77
2023/09/25 07:34:46;;;;;;;7.90;3.00;;;;;;;;;;5136097;27;20038;-70
2023/09/25 07:37:12;;;;;;;4.40;2.95;;;;;;;;;;5117572;27;20424;-70
2023/09/25 07:39:40;;;;;;;5.13;3.00;;;;;;;;;;5117372;27;20073;-69
2023/09/25 07:42:10;;;;;;;5.05;3.25;;;;;;;;;;5117471;27;20607;-76
2023/09/25 07:44:36;;;;;;;5.47;2.92;;;;;;;;;;5117580;27;20053;-76
2023/09/25 07:47:06;;;;;;;5.80;3.15;;;;;;;;;;5117960;27;20467;-77
2023/09/25 07:49:44;;;;;;;11.93;3.10;;;;;;;;;;5117982;27;20047;-76
2023/09/25 07:52:17;;;;;;;6.63;2.92;;;;;;;;;;5131452;27;20042;-76
2023/09/25 07:54:44;;;;;;;6.45;2.70;;;;;;;;;;5132153;27;20035;-69
2023/09/25 07:57:19;;;;;;;4.40;2.78;;;14.10;99.90;;;;;;5131267;27;20448;-76
2023/09/25 07:59:46;;;;;;;6.80;2.63;;;;;;;;;;5133796;27;20038;-70
2023/09/25 08:02:16;;;;;;;5.13;2.60;;;;;;;;;;5132059;27;20076;-75
2023/09/25 08:04:44;;;;;;;5.55;2.80;;;14.90;99.90;;;;;;5122615;27;20047;-76
2023/09/25 08:07:10;;;;;;;5.40;2.97;;;;;;;;;;5135060;27;20057;-76
2023/09/25 08:09:37;;;;;;;4.85;2.70;;;;;;;;;;5099557;27;20105;-76
2023/09/25 08:12:03;;;;;;;5.57;2.90;;;15.30;99.90;;;;;;5116481;27;20131;-76
2023/09/25 08:14:29;;;;;;;6.57;2.75;;;14.50;99.90;;;;;;5116116;27;20479;-76
2023/09/25 08:16:55;;;;;;;8.15;2.97;;;;;;;;;;5116191;27;20035;-70
2023/09/25 08:19:23;;;;;;;5.97;2.85;;;;;;;;;;5134841;27;20039;-69
2023/09/25 08:21:51;;;;;;;5.63;2.80;;;14.70;99.90;;;;;;5099660;27;20551;-69
2023/09/25 08:24:17;;;;;;;7.53;2.97;;;;;;;;;;5116262;27;20118;-70
2023/09/25 08:26:46;;;;;;;5.80;2.85;;;;;;;;;;5099276;27;20043;-69
2023/09/25 08:29:16;;;;;;;7.03;3.13;;;15.00;99.90;;;;;;5116158;27;20054;-69
2023/09/25 08:31:45;;;;;;;5.78;2.80;;;15.10;99.90;;;;;;5116569;27;20039;-76
2023/09/25 08:34:14;;;;;;;15.60;3.50;;;;;;;;;;5116184;27;20050;-76
2023/09/25 08:36:40;;;;;;;12.57;3.42;;;;;;;;;;5116218;27;20043;-76
2023/09/25 08:39:08;;;;;;;6.82;2.60;;;;;;;;;;5116089;27;20114;-76
2023/09/25 08:41:35;;;;;;;4.00;2.60;;;;;;;;;;5098949;27;20436;-77
2023/09/25 08:44:01;;;;;;;6.22;2.80;;;16.20;99.90;;;;;;5099074;27;20049;-76
2023/09/25 08:46:28;;;;;;;5.30;2.85;;;;;;;;;;5098903;27;20104;-69
2023/09/25 08:48:58;;;;;;;6.30;3.17;;;;;;;;;;5134101;27;20126;-69
2023/09/25 08:51:31;;;;;;;5.88;2.75;;;;;;;;;;5098856;27;20057;-69
2023/09/25 08:53:57;;;;;;;6.45;2.75;;;;;;;;;;5115656;27;20047;-69
2023/09/25 08:56:24;;;;;;;5.40;2.80;;;;;;;;;;5134110;27;20398;-69
2023/09/25 08:58:51;;;;;;;5.50;3.00;;;;;;;;;;5115510;27;20039;-70
2023/09/25 09:01:18;;;;;;;5.22;2.80;;;;;;;;;;5115633;27;20043;-69
2023/09/25 09:03:45;;;;;;;4.72;2.70;;;;;;;;;;5099051;27;20078;-68
2023/09/25 09:06:11;;;;;;;5.88;2.58;;;;;;;;;;5115460;27;20039;-69
2023/09/25 09:08:37;;;;;;;5.85;2.50;;;;;;;;;;5115445;27;20466;-69
2023/09/25 09:11:13;;;;;;;10.35;3.20;;;16.80;99.90;;;;;;5081597;27;20047;-69
2023/09/25 09:13:43;;;;;;;6.50;2.80;;;15.90;99.90;;;;;;5133877;27;20379;-69
2023/09/25 09:16:17;;;;;;;14.55;3.22;;;;;;;;;;5114855;27;20548;-77
2023/09/25 09:18:45;;;;;;;18.52;4.20;;;16.10;99.90;;;;;;5115408;27;20031;-76
2023/09/25 09:21:25;;;;;;;23.20;4.32;;;;;;;;;;5098115;27;20039;-76
2023/09/25 09:23:57;;;;;;;19.27;3.70;;;;;;;;;;5115326;27;20320;-76
2023/09/25 09:26:23;;;;;;;10.80;3.33;;;;;;;;;;5115234;27;20546;-76
2023/09/25 09:28:50;;;;;;;11.18;3.42;;;;;;;;;;5114983;27;20077;-76
2023/09/25 09:31:18;;;;;;;6.75;2.80;;;;;;;;;;5115147;27;20509;-76
2023/09/25 09:33:44;;;;;;;7.35;3.13;;;;;;;;;;5115313;27;20066;-76
2023/09/25 09:36:11;;;;;;;6.25;3.00;;;;;;;;;;5114924;27;20039;-77
2023/09/25 09:38:39;;;;;;;7.13;2.60;;;;;;;;;;5115506;27;20432;-76
2023/09/25 09:41:06;;;;;;;5.18;2.65;;;16.80;99.90;;;;;;5115227;27;20096;-76
2023/09/25 09:43:32;;;;;;;7.72;3.20;;;;;;;;;;5081820;28;20031;-77
2023/09/25 09:45:59;;;;;;;5.80;2.78;;;16.70;99.90;;;;;;5115000;27;20050;-77
2023/09/25 09:48:31;;;;;;;8.75;3.00;;;16.70;99.90;;;;;;5115086;28;20122;-77
2023/09/25 09:51:03;;;;;;;12.10;2.97;;;;;;;;;;5114861;28;20049;-77
2023/09/25 09:53:34;;;;;;;14.55;3.30;;;17.00;99.90;;;;;;5114580;28;20044;-77
2023/09/25 09:56:01;;;;;;;8.63;3.30;;;;;;;;;;5114794;28;20578;-77
2023/09/25 09:58:27;;;;;;;6.28;3.10;;;16.80;99.90;;;;;;5114967;28;20051;-77
2023/09/25 10:00:57;;;;;;;9.60;3.13;;;;;;;;;;5114949;28;20040;-77
2023/09/25 10:03:24;;;;;;;7.03;3.15;;;;;;;;;;5114993;28;20126;-77
2023/09/25 10:05:51;;;;;;;6.75;2.97;;;17.20;99.90;;;;;;5097916;28;20152;-78
2023/09/25 10:08:17;;;;;;;5.30;3.97;;;;;;;;;;5114737;28;20099;-78
2023/09/25 10:10:48;;;;;;;10.32;3.45;;;17.20;99.90;;;;;;5097836;28;20039;-77
2023/09/25 10:13:21;;;;;;;5.72;2.80;;;17.00;99.90;;;;;;5114682;28;20051;-77
2023/09/25 10:15:55;;;;;;;8.80;3.13;;;17.20;99.40;;;;;;5114883;28;20043;-76
2023/09/25 10:18:21;;;;;;;7.93;2.88;;;17.20;99.90;;;;;;5114886;28;20045;-77
2023/09/25 10:20:48;;;;;;;6.30;3.15;;;;;;;;;;5081394;28;20042;-78
2023/09/25 10:23:20;;;;;;;8.10;3.47;;;;;;;;;;5114608;28;20032;-77
2023/09/25 10:25:57;;;;;;;6.88;3.58;;;17.50;99.10;;;;;;5114871;28;20047;-77
2023/09/25 10:28:23;;;;;;;5.38;3.03;;;;;;;;;;5116311;27;20043;-77
2023/09/25 10:30:50;;;;;;;7.07;3.45;;;17.60;99.90;;;;;;5118290;27;20043;-77
2023/09/25 10:33:21;;;;;;;6.03;3.15;;;;;;;;;;5118536;27;20114;-77
2023/09/25 10:35:50;;;;;;;5.75;3.47;;;17.60;99.90;;;;;;5118582;27;20072;-77
2023/09/25 10:38:19;;;;;;;7.10;2.97;;;17.70;99.90;;;;;;5102147;27;20049;-77
2023/09/25 10:40:46;;;;;;;7.47;3.15;;;;;;;;;;5118529;27;20050;-77
2023/09/25 10:43:12;;;;;;;4.80;2.88;;;;;;;;;;5118652;27;20039;-77
2023/09/25 10:45:38;;;;;;;6.82;3.22;;;;;;;;;;5118834;27;20043;-77
2023/09/25 10:48:04;;;;;;;5.75;2.92;;;19.10;99.90;;;;;;5119125;27;20079;-77
2023/09/25 10:50:30;;;;;;;5.97;3.55;;;;;;;;;;5118477;27;20050;-77
2023/09/25 10:52:57;;;;;;;6.28;3.30;;;18.80;99.90;;;;;;5118424;27;20039;-77
2023/09/25 10:55:23;;;;;;;7.47;3.47;;;;;;;;;;5137900;27;20032;-77
2023/09/25 10:57:50;;;;;;;6.53;3.20;;;;;;;;;;5102422;27;20082;-77
2023/09/25 11:00:18;;;;;;;7.70;3.33;;;19.40;99.90;;;;;;5102784;27;20398;-78
2023/09/25 11:02:44;;;;;;;7.20;3.30;;;18.70;98.20;;;;;;5119786;27;20102;-77
2023/09/25 11:05:11;;;;;;;7.35;3.50;;;18.70;98.30;;;;;;5102734;27;20047;-78
2023/09/25 11:07:37;;;;;;;6.10;2.80;;;19.40;99.00;;;;;;5114858;27;20115;-77
2023/09/25 11:10:08;;;;;;;7.57;3.50;;;19.20;99.90;;;;;;5138758;27;20053;-76
2023/09/25 11:12:34;;;;;;;5.22;3.05;;;;;;;;;;5137455;27;20063;-76
2023/09/25 11:15:00;;;;;;;5.43;3.13;;;;;;;;;;5138268;27;20058;-76
2023/09/25 11:17:26;;;;;;;6.53;3.83;;;19.60;99.90;;;;;;5121503;27;20061;-75
2023/09/25 11:19:52;;;;;;;7.93;3.40;;;19.60;99.90;;;;;;5122033;27;20051;-77
2023/09/25 11:22:19;;;;;;;7.38;3.40;;;17.90;98.80;;;;;;5117681;27;20380;-71
2023/09/25 11:24:56;;;;;;;7.43;3.20;;;18.90;98.50;;;;;;5117684;27;20348;-69
2023/09/25 11:27:22;;;;;;;5.25;3.00;;;19.00;99.20;;;;;;5117148;27;20039;-70
2023/09/25 11:29:52;;;;;;;6.80;3.45;;;19.10;97.50;;;;;;5117340;27;20046;-70
2023/09/25 11:32:18;;;;;;;7.80;3.38;;;;;;;;;;5117407;27;20039;-70
2023/09/25 11:34:44;;;;;;;11.90;3.65;;;;;;;;;;5117163;27;20054;-70
2023/09/25 11:37:19;;;;;;;10.38;3.97;;;19.20;96.90;;;;;;5100210;27;20518;-77
2023/09/25 11:39:48;;;;;;;10.73;3.45;;;;;;;;;;5135206;27;20031;-77
2023/09/25 11:42:15;;;;;;;7.10;3.35;;;19.50;97.70;;;;;;5099878;27;20176;-77
2023/09/25 11:44:41;;;;;;;7.50;3.70;;;;;;;;;;5100093;27;20046;-77
2023/09/25 11:47:07;;;;;;;9.57;3.20;;;;;;;;;;5083038;27;20043;-76
2023/09/25 11:49:33;;;;;;;7.97;3.58;;;;;;;;;;5135418;27;20031;-76
2023/09/25 11:51:59;;;;;;;7.63;3.45;;;;;;;;;;5117129;27;20361;-76
2023/09/25 11:54:25;;;;;;;7.10;3.92;;;;;;;;;;5117037;27;20110;-77
2023/09/25 11:56:51;;;;;;;9.38;3.50;;;;;;;;;;5116865;27;20126;-70
2023/09/25 11:59:18;;;;;;;7.18;3.65;;;;;;;;;;5116682;27;20035;-70
2023/09/25 12:01:45;;;;;;;6.05;3.33;;;;;;;;;;5116428;27;20075;-70
2023/09/25 12:04:12;;;;;;;6.68;3.53;;;;;;;;;;5117034;27;20128;-77
2023/09/25 12:06:39;;;;;;;7.75;3.60;;;20.00;99.90;;;;;;5116793;27;20373;-76
2023/09/25 12:09:11;;;;;;;5.80;3.20;;;20.60;97.10;;;;;;5116880;27;20495;-76
2023/09/25 12:11:40;;;;;;;5.10;3.40;;;19.00;99.90;;;;;;5115455;27;20420;-77
2023/09/25 12:14:06;;;;;;;6.00;3.40;;;;;;;;;;5134781;27;20489;-77
2023/09/25 12:16:33;;;;;;;6.35;3.13;;;19.70;98.00;;;;;;5099947;27;20094;-76
2023/09/25 12:18:59;;;;;;;6.40;3.22;;;;;;;;;;5116589;27;20124;-76
2023/09/25 12:21:25;;;;;;;4.72;3.20;;;;;;;;;;5134678;27;20506;-76
2023/09/25 12:23:51;;;;;;;9.15;3.67;;;;;;;;;;5116106;27;20047;-76
2023/09/25 12:26:17;;;;;;;7.63;3.40;;;20.70;98.30;;;;;;5116095;27;20058;-76
2023/09/25 12:28:43;;;;;;;8.00;3.30;;;;;;;;;;5099046;27;20429;-69
2023/09/25 12:31:10;;;;;;;8.25;3.50;;;19.90;99.90;;;;;;5116354;27;20043;-69
2023/09/25 12:33:37;;;;;;;8.65;4.22;;;;;;;;;;5099178;27;20426;-69
2023/09/25 12:36:03;;;;;;;8.50;3.38;;;19.40;99.90;;;;;;5099169;27;20057;-69
2023/09/25 12:38:29;;;;;;;9.57;3.60;;;;;;;;;;5134305;27;20043;-70
2023/09/25 12:40:55;;;;;;;7.03;3.28;;;19.50;99.90;;;;;;5134616;27;20047;-70
2023/09/25 12:43:21;;;;;;;10.20;3.60;;;;;;;;;;5099038;27;20118;-70
2023/09/25 12:45:47;;;;;;;6.68;3.38;;;20.80;97.80;;;;;;5098613;27;20039;-69
2023/09/25 12:48:13;;;;;;;6.75;3.45;;;;;;;;;;5115581;27;20066;-76
2023/09/25 12:50:39;;;;;;;7.78;3.40;;;;;;;;;;5115158;27;20363;-76
2023/09/25 12:53:05;;;;;;;10.88;3.58;;;;;;;;;;5115586;27;20043;-76
2023/09/25 12:55:33;;;;;;;8.05;3.22;;;19.40;97.50;;;;;;5116312;27;20046;-76
2023/09/25 12:57:59;;;;;;;7.15;3.40;;;20.90;98.90;;;;;;5116013;27;20110;-69
2023/09/25 13:00:25;;;;;;;9.07;3.50;;;20.70;99.70;;;;;;5115352;27;20043;-69
2023/09/25 13:02:51;;;;;;;10.27;3.30;;;;;;;;;;5099032;27;20058;-69
2023/09/25 13:05:18;;;;;;;11.27;4.25;;;20.00;96.10;;;;;;5115610;27;20047;-69
2023/09/25 13:07:44;;;;;;;7.68;3.40;;;21.30;99.40;;;;;;5115474;27;20035;-69
2023/09/25 13:10:11;;;;;;;4.80;2.78;;;19.90;99.00;;;;;;5115344;27;20046;-69
2023/09/25 13:12:39;;;;;;;7.40;3.60;;;;;;;;;;5081453;27;20057;-69
2023/09/25 13:15:06;;;;;;;5.72;3.00;;;20.90;95.50;;;;;;5115641;27;20448;-69
2023/09/25 13:17:32;;;;;;;6.00;3.22;;;;;;;;;;5115401;27;20470;-69
2023/09/25 13:20:07;;;;;;;10.50;3.30;;;22.00;97.60;;;;;;5114860;27;20130;-69
2023/09/25 13:22:36;;;;;;;6.93;3.40;;;20.50;97.10;;;;;;5082525;27;20031;-69
2023/09/25 13:25:02;;;;;;;8.88;3.17;;;;;;;;;;5098120;27;20479;-69
2023/09/25 13:27:28;;;;;;;6.25;3.58;;;;;;;;;;5115367;27;20078;-70
2023/09/25 13:29:54;;;;;;;7.70;3.63;;;21.00;95.10;;;;;;5115057;27;20561;-69
2023/09/25 13:32:20;;;;;;;6.80;3.20;;;;;;;;;;5098238;28;20192;-69
2023/09/25 13:34:49;;;;;;;7.88;3.20;;;;;;;;;;5133308;27;20534;-77
2023/09/25 13:37:15;;;;;;;8.38;3.53;;;;;;;;;;5133456;27;20386;-76
2023/09/25 13:39:41;;;;;;;8.63;3.28;;;20.50;95.80;;;;;;5114671;27;20043;-76
2023/09/25 13:42:07;;;;;;;7.22;3.50;;;;;;;;;;5115015;27;20039;-76
2023/09/25 13:44:34;;;;;;;10.05;3.35;;;21.30;94.90;;;;;;5114884;27;20168;-76
2023/09/25 13:47:00;;;;;;;8.45;3.10;;;;;;;;;;5098152;27;20074;-76
2023/09/25 13:49:27;;;;;;;6.55;3.10;;;;;;;;;;5097761;28;20091;-76
2023/09/25 13:51:53;;;;;;;8.30;3.10;;;;;;;;;;5115004;28;20050;-76
2023/09/25 13:54:19;;;;;;;7.97;3.25;;;;;;;;;;5098047;28;20376;-77
2023/09/25 13:56:45;;;;;;;7.75;3.55;;;;;;;;;;5133318;28;20050;-77
2023/09/25 13:59:14;;;;;;;8.15;3.47;;;;;;;;;;5098032;28;20432;-77
2023/09/25 14:01:40;;;;;;;6.05;3.42;;;;;;;;;;5115535;27;20540;-76
2023/09/25 14:04:06;;;;;;;5.70;3.50;;;21.00;98.80;;;;;;5102022;27;20042;-76
2023/09/25 14:06:32;;;;;;;6.38;3.63;;;20.90;97.90;;;;;;5119049;27;20039;-76
2023/09/25 14:08:58;;;;;;;9.25;3.70;;;;;;;;;;5118977;27;20090;-77
2023/09/25 14:11:24;;;;;;;7.00;3.22;;;20.00;96.00;;;;;;5119204;27;20119;-76
2023/09/25 14:13:49;;;;;;;6.57;3.03;;;20.90;98.90;;;;;;5118930;27;20126;-77